Time;durP1;ratioP1;P1;durP2;ratioP2;P2;SDS_P1;SDS_P2;PMS_P1;PMS_P2;Temp;Humidity;BMP_temperature;BMP_pressure;BME280_temperature;BME280_humidity;BME280_pressure;Samples;Min_cycle;Max_cycle;Signal;HPM_P1;HPM_P2
2023/08/05 00:02:24;;;;;;;83.13;53.88;;;18.50;83.50;;;;;;4987727;28;90672;-87
2023/08/05 00:04:50;;;;;;;82.15;53.65;;;18.50;83.70;;;;;;4989401;28;90671;-87
2023/08/05 00:07:15;;;;;;;82.30;53.55;;;18.50;83.90;;;;;;4993210;28;89284;-87
2023/08/05 00:09:41;;;;;;;82.22;53.03;;;18.50;83.50;;;;;;4987095;28;89665;-87
2023/08/05 00:12:07;;;;;;;81.97;53.78;;;18.50;83.60;;;;;;5001871;28;90071;-86
2023/08/05 00:14:36;;;;;;;81.70;53.45;;;18.50;83.50;;;;;;5006919;28;89130;-89
2023/08/05 00:17:01;;;;;;;81.70;53.45;;;18.50;83.50;;;;;;4996640;28;90335;-88
2023/08/05 00:19:27;;;;;;;82.43;53.55;;;18.50;83.60;;;;;;5006201;28;89162;-89
2023/08/05 00:21:52;;;;;;;82.45;53.40;;;18.50;83.80;;;;;;5003988;28;89602;-88
2023/08/05 00:24:18;;;;;;;81.93;53.47;;;18.50;83.70;;;;;;4993605;28;89895;-89
2023/08/05 00:26:43;;;;;;;81.90;53.33;;;18.50;83.50;;;;;;4997053;28;89333;-89
2023/08/05 00:29:09;;;;;;;82.35;53.58;;;18.40;83.40;;;;;;4995491;28;91649;-87
2023/08/05 00:31:35;;;;;;;82.55;53.70;;;18.50;83.20;;;;;;4997706;28;89802;-89
2023/08/05 00:34:00;;;;;;;81.60;53.50;;;18.50;82.80;;;;;;4988777;28;89370;-86
2023/08/05 00:36:26;;;;;;;82.57;53.45;;;18.50;82.80;;;;;;4991231;28;89047;-86
2023/08/05 00:38:52;;;;;;;82.18;53.33;;;18.40;83.10;;;;;;4986345;28;90038;-86
2023/08/05 00:41:17;;;;;;;83.82;53.40;;;18.40;82.90;;;;;;4988098;28;90079;-86
2023/08/05 00:43:43;;;;;;;81.65;53.25;;;18.40;83.10;;;;;;4992308;28;89599;-86
2023/08/05 00:46:10;;;;;;;82.00;53.85;;;18.40;83.20;;;;;;4989311;28;89389;-86
2023/08/05 00:48:36;;;;;;;81.80;53.47;;;18.40;82.90;;;;;;4988495;28;91747;-86
2023/08/05 00:51:03;;;;;;;83.45;53.45;;;18.40;83.10;;;;;;4990952;28;89903;-86
2023/08/05 00:53:31;;;;;;;81.57;53.67;;;18.40;83.30;;;;;;4991069;28;90751;-85
2023/08/05 00:55:57;;;;;;;81.68;53.53;;;18.40;83.10;;;;;;4991712;28;88756;-85
2023/08/05 00:58:23;;;;;;;83.57;53.55;;;18.40;83.20;;;;;;4993069;28;89751;-86
2023/08/05 01:00:49;;;;;;;81.75;53.63;;;18.40;83.10;;;;;;4993391;28;89215;-85
2023/08/05 01:03:15;;;;;;;82.15;54.00;;;18.40;83.00;;;;;;4991652;28;89439;-85
2023/08/05 01:05:42;;;;;;;82.07;53.42;;;18.40;83.10;;;;;;4973014;28;90294;-85
2023/08/05 01:08:09;;;;;;;82.22;53.42;;;18.40;83.20;;;;;;4985614;28;89720;-85
2023/08/05 01:10:35;;;;;;;81.25;53.53;;;18.40;83.60;;;;;;4986947;28;92229;-85
2023/08/05 01:13:01;;;;;;;81.82;53.72;;;18.40;82.80;;;;;;4973097;28;89223;-85
2023/08/05 01:15:26;;;;;;;82.30;53.80;;;18.40;83.20;;;;;;4995543;28;89225;-85
2023/08/05 01:17:54;;;;;;;82.57;53.80;;;18.40;82.90;;;;;;4991629;28;89952;-85
2023/08/05 01:20:27;;;;;;;81.20;53.42;;;18.40;83.30;;;;;;4983590;28;90375;-85
2023/08/05 01:22:54;;;;;;;83.15;53.80;;;18.40;82.80;;;;;;4983161;28;89186;-84
2023/08/05 01:25:28;;;;;;;81.80;53.90;;;18.40;83.20;;;;;;4987384;28;90604;-85
2023/08/05 01:27:56;;;;;;;81.47;53.30;;;18.40;83.10;;;;;;4987938;28;90163;-86
2023/08/05 01:30:26;;;;;;;82.30;53.58;;;18.40;84.90;;;;;;4976014;28;90012;-86
2023/08/05 01:32:52;;;;;;;81.70;53.58;;;18.40;82.80;;;;;;4988574;28;89180;-86
2023/08/05 01:35:21;;;;;;;82.32;53.70;;;18.40;83.70;;;;;;4972633;28;88704;-86
2023/08/05 01:37:47;;;;;;;82.20;53.65;;;18.50;82.60;;;;;;4986387;28;91478;-86
2023/08/05 01:40:13;;;;;;;82.15;54.03;;;18.40;83.50;;;;;;4984425;28;90218;-85
2023/08/05 01:42:39;;;;;;;81.95;53.75;;;18.40;82.90;;;;;;4986039;28;90241;-85
2023/08/05 01:45:05;;;;;;;82.55;53.88;;;18.40;83.40;;;;;;4994276;28;90142;-86
2023/08/05 01:47:30;;;;;;;81.72;53.75;;;18.40;83.20;;;;;;4987059;28;89941;-85
2023/08/05 01:49:56;;;;;;;82.38;53.92;;;18.50;83.50;;;;;;4986322;28;90646;-85
2023/08/05 01:52:22;;;;;;;82.28;53.92;;;18.40;83.10;;;;;;4984732;28;89367;-84
2023/08/05 01:54:47;;;;;;;83.32;54.60;;;18.50;83.60;;;;;;4990286;28;89938;-86
2023/08/05 01:57:13;;;;;;;84.40;54.65;;;18.50;83.20;;;;;;4991506;28;89155;-86
2023/08/05 01:59:38;;;;;;;84.22;54.65;;;18.50;83.10;;;;;;4991990;28;89975;-85
2023/08/05 02:02:04;;;;;;;82.63;53.97;;;18.50;82.90;;;;;;4972661;28;89157;-86
2023/08/05 02:04:30;;;;;;;83.93;54.17;;;18.50;83.10;;;;;;4985507;28;90038;-86
2023/08/05 02:06:55;;;;;;;82.53;54.05;;;18.50;83.00;;;;;;4982585;28;90720;-85
2023/08/05 02:09:21;;;;;;;82.93;54.42;;;18.50;82.80;;;;;;4985165;28;91299;-86
2023/08/05 02:11:47;;;;;;;82.32;53.85;;;18.50;82.60;;;;;;4991967;28;89298;-86
2023/08/05 02:14:12;;;;;;;83.20;54.25;;;18.50;82.70;;;;;;4995073;28;90596;-85
2023/08/05 02:16:38;;;;;;;82.80;54.25;;;18.40;82.60;;;;;;4990483;28;90675;-85
2023/08/05 02:19:03;;;;;;;83.40;54.00;;;18.50;82.80;;;;;;4990679;28;90083;-86
2023/08/05 02:21:29;;;;;;;83.03;53.80;;;18.50;82.70;;;;;;4995067;28;89090;-85
2023/08/05 02:23:55;;;;;;;81.60;53.85;;;18.50;82.70;;;;;;4992750;28;88918;-87
2023/08/05 02:26:21;;;;;;;82.80;54.13;;;18.50;82.60;;;;;;4975768;28;91942;-88
2023/08/05 02:28:46;;;;;;;82.20;53.95;;;18.50;82.70;;;;;;4991704;28;89306;-87
2023/08/05 02:31:13;;;;;;;83.05;54.25;;;18.50;82.70;;;;;;4989574;28;91462;-87
2023/08/05 02:33:39;;;;;;;81.57;53.63;;;18.50;82.60;;;;;;4973976;28;89701;-86
2023/08/05 02:36:04;;;;;;;82.05;54.03;;;18.50;82.90;;;;;;4987120;28;89494;-86
2023/08/05 02:38:30;;;;;;;81.45;53.60;;;18.50;82.50;;;;;;4992797;28;89982;-86
2023/08/05 02:40:57;;;;;;;82.25;54.20;;;18.50;82.80;;;;;;4988533;28;91551;-87
2023/08/05 02:43:22;;;;;;;82.43;53.70;;;18.50;82.90;;;;;;5006406;28;89326;-86
2023/08/05 02:45:55;;;;;;;81.85;53.60;;;18.40;82.80;;;;;;4993845;28;91439;-85
2023/08/05 02:48:22;;;;;;;81.72;53.50;;;18.40;82.50;;;;;;4988709;28;90721;-86
2023/08/05 02:50:48;;;;;;;82.03;54.05;;;18.40;82.50;;;;;;4996302;28;88923;-86
2023/08/05 02:53:14;;;;;;;81.85;53.80;;;18.40;83.10;;;;;;4984399;28;89343;-86
2023/08/05 02:55:39;;;;;;;82.20;53.63;;;18.40;82.60;;;;;;4984277;28;90635;-86
2023/08/05 02:58:06;;;;;;;81.53;53.25;;;18.40;82.70;;;;;;4991254;28;90302;-84
2023/08/05 03:00:31;;;;;;;82.22;53.40;;;18.40;83.00;;;;;;4988709;28;90637;-86
2023/08/05 03:02:57;;;;;;;83.30;53.78;;;18.40;83.10;;;;;;5007288;28;96036;-86
2023/08/05 03:05:23;;;;;;;81.70;53.63;;;18.30;83.70;;;;;;5002075;28;89700;-86
2023/08/05 03:07:48;;;;;;;81.80;53.78;;;18.30;82.70;;;;;;4992521;28;90326;-87
2023/08/05 03:10:14;;;;;;;82.07;53.75;;;18.30;83.40;;;;;;4987901;28;89792;-87
2023/08/05 03:12:40;;;;;;;82.97;53.67;;;18.30;83.40;;;;;;4989959;28;88590;-87
2023/08/05 03:15:06;;;;;;;81.38;53.67;;;18.40;83.80;;;;;;4994738;28;89998;-85
2023/08/05 03:17:32;;;;;;;82.35;53.40;;;18.30;82.70;;;;;;4995889;28;94380;-85
2023/08/05 03:19:58;;;;;;;81.85;53.17;;;18.30;83.30;;;;;;4984002;28;90099;-85
2023/08/05 03:22:23;;;;;;;82.28;53.58;;;18.30;83.30;;;;;;4988919;28;89473;-86
2023/08/05 03:24:49;;;;;;;82.32;53.60;;;18.30;82.90;;;;;;4987228;28;89396;-86
2023/08/05 03:27:14;;;;;;;82.30;53.75;;;18.30;82.90;;;;;;4966588;28;92697;-87
2023/08/05 03:29:40;;;;;;;84.45;53.83;;;18.30;83.10;;;;;;4969666;28;89276;-86
2023/08/05 03:32:06;;;;;;;82.57;53.30;;;18.30;83.20;;;;;;4987070;28;90893;-87
2023/08/05 03:34:31;;;;;;;81.65;53.20;;;18.30;83.40;;;;;;4969703;28;93907;-88
2023/08/05 03:36:57;;;;;;;83.15;53.78;;;18.20;83.10;;;;;;4987557;28;91934;-85
2023/08/05 03:39:23;;;;;;;82.25;53.22;;;18.20;83.20;;;;;;4984725;28;89148;-86
2023/08/05 03:41:48;;;;;;;81.78;53.53;;;18.20;83.20;;;;;;4990701;28;89629;-85
2023/08/05 03:44:14;;;;;;;82.05;53.55;;;18.20;83.20;;;;;;4969794;28;92906;-85
2023/08/05 03:46:39;;;;;;;83.15;53.47;;;18.20;82.90;;;;;;4982751;28;89436;-85
2023/08/05 03:49:05;;;;;;;82.85;53.40;;;18.20;83.10;;;;;;4984331;28;89301;-85
2023/08/05 03:51:31;;;;;;;82.15;53.30;;;18.20;82.80;;;;;;4974332;28;90185;-86
2023/08/05 03:53:56;;;;;;;84.47;53.45;;;18.20;83.50;;;;;;4988805;28;90896;-86
2023/08/05 03:56:26;;;;;;;81.15;53.20;;;18.20;84.70;;;;;;4984181;28;93197;-87
2023/08/05 03:58:53;;;;;;;81.75;53.63;;;18.20;84.00;;;;;;4985033;28;89192;-86
2023/08/05 04:01:21;;;;;;;81.60;53.40;;;18.20;84.60;;;;;;4997154;28;87933;-86
2023/08/05 04:03:49;;;;;;;81.32;53.47;;;18.20;84.30;;;;;;4991803;28;89633;-86
2023/08/05 04:06:15;;;;;;;82.25;53.08;;;18.20;89.10;;;;;;4995048;28;89644;-87
2023/08/05 04:08:41;;;;;;;82.95;53.63;;;18.20;83.60;;;;;;4996296;28;89744;-87
2023/08/05 04:11:08;;;;;;;81.35;52.95;;;18.10;85.70;;;;;;4992648;28;88886;-87
2023/08/05 04:13:35;;;;;;;80.88;52.60;;;18.10;83.10;;;;;;4995892;28;89700;-87
2023/08/05 04:16:03;;;;;;;83.20;53.25;;;18.10;83.70;;;;;;4997326;28;89789;-87
2023/08/05 04:18:33;;;;;;;81.85;53.13;;;18.20;83.60;;;;;;4992446;28;89360;-86
2023/08/05 04:20:58;;;;;;;81.18;53.03;;;18.10;83.50;;;;;;4995829;28;88977;-88
2023/08/05 04:23:25;;;;;;;80.78;52.85;;;18.10;84.70;;;;;;4994008;28;90192;-88
2023/08/05 04:25:51;;;;;;;82.93;53.22;;;18.10;83.40;;;;;;4993623;28;89784;-86
2023/08/05 04:28:17;;;;;;;81.22;53.13;;;18.20;86.20;;;;;;4996909;28;89122;-87
2023/08/05 04:30:42;;;;;;;81.03;52.88;;;18.20;84.10;;;;;;4996573;28;89204;-86
2023/08/05 04:33:08;;;;;;;82.75;53.17;;;18.20;84.00;;;;;;4993895;28;90543;-86
2023/08/05 04:35:35;;;;;;;80.53;53.00;;;18.20;83.80;;;;;;4996394;28;90406;-86
2023/08/05 04:38:01;;;;;;;81.18;52.67;;;18.20;84.00;;;;;;4991349;28;90273;-87
2023/08/05 04:40:26;;;;;;;80.80;52.88;;;18.20;83.80;;;;;;4991307;28;89067;-87
2023/08/05 04:42:52;;;;;;;81.45;53.00;;;18.20;83.80;;;;;;4995522;28;90827;-85
2023/08/05 04:45:17;;;;;;;81.32;53.33;;;18.20;85.30;;;;;;4976635;28;92244;-85
2023/08/05 04:47:43;;;;;;;80.57;52.90;;;18.20;86.60;;;;;;4981540;28;89126;-84
2023/08/05 04:50:09;;;;;;;80.97;52.95;;;18.20;84.90;;;;;;4994778;28;88682;-84
2023/08/05 04:52:34;;;;;;;82.18;53.03;;;18.20;83.90;;;;;;4993238;28;89468;-85
2023/08/05 04:55:09;;;;;;;81.78;53.03;;;18.20;83.40;;;;;;4995826;28;89814;-84
2023/08/05 04:57:35;;;;;;;81.38;53.35;;;18.20;84.40;;;;;;4992115;28;89950;-84
2023/08/05 05:00:01;;;;;;;82.47;53.50;;;18.20;85.20;;;;;;5001087;28;89187;-85
2023/08/05 05:02:27;;;;;;;81.85;53.22;;;18.20;85.80;;;;;;4973702;28;92070;-84
2023/08/05 05:04:53;;;;;;;81.47;52.72;;;18.20;87.00;;;;;;4979335;28;92573;-85
2023/08/05 05:07:19;;;;;;;82.10;52.78;;;18.20;83.50;;;;;;4996197;28;89147;-85
2023/08/05 05:09:45;;;;;;;81.00;52.78;;;18.20;84.20;;;;;;4992491;28;89480;-86
2023/08/05 05:12:10;;;;;;;81.18;52.55;;;18.20;84.10;;;;;;4993832;28;90842;-86
2023/08/05 05:14:44;;;;;;;81.22;53.47;;;18.20;84.00;;;;;;4999635;28;89488;-86
2023/08/05 05:17:09;;;;;;;80.45;52.83;;;18.20;89.50;;;;;;4995295;28;90963;-86
2023/08/05 05:19:35;;;;;;;80.85;52.45;;;18.20;87.20;;;;;;4990222;28;90073;-86
2023/08/05 05:22:01;;;;;;;81.03;52.72;;;18.20;84.10;;;;;;4994874;28;90708;-87
2023/08/05 05:24:29;;;;;;;81.50;52.95;;;18.20;83.60;;;;;;4994521;28;89496;-87
2023/08/05 05:26:57;;;;;;;82.68;52.97;;;18.20;83.60;;;;;;4990720;28;89845;-86
2023/08/05 05:29:23;;;;;;;81.85;52.67;;;18.20;83.80;;;;;;4977154;28;89402;-86
2023/08/05 05:31:48;;;;;;;81.80;53.28;;;18.30;83.20;;;;;;4995575;28;89606;-86
2023/08/05 05:34:14;;;;;;;81.47;53.25;;;18.30;85.50;;;;;;4997071;28;89188;-86
2023/08/05 05:36:39;;;;;;;81.30;52.72;;;18.30;84.60;;;;;;4992616;28;89181;-85
2023/08/05 05:39:05;;;;;;;81.50;53.30;;;18.30;84.50;;;;;;4992409;28;88426;-85
2023/08/05 05:41:31;;;;;;;81.80;52.78;;;18.30;89.30;;;;;;4993787;28;89297;-87
2023/08/05 05:43:58;;;;;;;80.95;53.17;;;18.30;86.50;;;;;;4995443;28;90278;-87
2023/08/05 05:46:24;;;;;;;80.25;52.75;;;18.40;85.60;;;;;;4991101;28;89958;-87
2023/08/05 05:48:49;;;;;;;81.65;52.85;;;18.40;84.10;;;;;;4975348;28;89291;-87
2023/08/05 05:51:15;;;;;;;82.38;53.20;;;18.40;84.40;;;;;;4996882;28;89641;-86
2023/08/05 05:53:40;;;;;;;81.80;52.75;;;18.40;87.00;;;;;;5005445;28;89575;-86
2023/08/05 05:56:06;;;;;;;80.93;52.95;;;18.40;83.50;;;;;;4998491;28;89866;-86
2023/08/05 05:58:34;;;;;;;81.68;53.03;;;18.50;85.50;;;;;;4996690;28;89782;-86
2023/08/05 06:01:01;;;;;;;83.22;53.15;;;18.50;87.70;;;;;;4994884;28;90184;-87
2023/08/05 06:03:27;;;;;;;81.72;52.88;;;18.50;85.20;;;;;;4999635;28;90711;-85
2023/08/05 06:05:53;;;;;;;81.10;53.10;;;18.50;82.70;;;;;;4996060;28;89695;-87
2023/08/05 06:08:18;;;;;;;81.63;52.88;;;18.60;84.90;;;;;;4993901;28;89286;-85
2023/08/05 06:10:44;;;;;;;81.13;53.15;;;18.60;85.40;;;;;;4996890;28;90280;-87
2023/08/05 06:13:10;;;;;;;81.63;53.10;;;18.60;84.60;;;;;;4997299;28;90446;-87
2023/08/05 06:15:42;;;;;;;81.78;53.35;;;18.60;83.70;;;;;;5008713;28;89895;-86
2023/08/05 06:18:08;;;;;;;82.65;53.08;;;18.70;87.90;;;;;;5011527;28;88946;-87
2023/08/05 06:20:34;;;;;;;81.57;53.22;;;18.60;84.00;;;;;;5000822;28;89655;-86
2023/08/05 06:23:00;;;;;;;81.63;52.97;;;18.70;83.20;;;;;;4991993;28;90169;-86
2023/08/05 06:25:26;;;;;;;81.72;52.75;;;18.70;83.80;;;;;;4991753;28;89264;-86
2023/08/05 06:27:52;;;;;;;81.28;53.15;;;18.70;84.40;;;;;;4998434;28;88878;-87
2023/08/05 06:30:18;;;;;;;82.75;53.05;;;18.70;84.00;;;;;;5009115;28;90428;-86
2023/08/05 06:32:43;;;;;;;81.05;52.95;;;18.70;82.10;;;;;;5002741;28;89905;-89
2023/08/05 06:35:09;;;;;;;81.10;52.92;;;18.70;81.60;;;;;;5003524;28;90097;-88
2023/08/05 06:37:34;;;;;;;82.55;53.33;;;18.80;81.80;;;;;;4990806;28;90930;-90
2023/08/05 06:40:00;;;;;;;81.97;53.25;;;18.80;81.50;;;;;;5007516;28;89583;-89
2023/08/05 06:42:26;;;;;;;80.57;52.70;;;18.80;81.80;;;;;;4987950;28;91548;-88
2023/08/05 06:44:52;;;;;;;81.63;53.33;;;18.80;82.20;;;;;;5001009;28;89383;-89
2023/08/05 06:47:18;;;;;;;82.65;53.67;;;18.90;82.70;;;;;;5013451;28;89508;-88
2023/08/05 06:49:44;;;;;;;81.57;53.20;;;18.90;86.30;;;;;;5005388;28;90603;-90
2023/08/05 06:52:09;;;;;;;83.95;53.45;;;18.90;82.60;;;;;;5000680;28;89758;-90
2023/08/05 06:54:35;;;;;;;81.90;53.10;;;19.00;81.90;;;;;;4998756;28;89415;-89
2023/08/05 06:57:00;;;;;;;82.18;53.30;;;19.00;81.80;;;;;;4998425;28;89343;-89
2023/08/05 06:59:27;;;;;;;83.82;53.40;;;19.00;82.60;;;;;;5000096;28;90645;-89
2023/08/05 07:01:53;;;;;;;81.68;53.05;;;19.00;84.10;;;;;;5000207;28;90930;-88
2023/08/05 07:04:19;;;;;;;83.00;53.65;;;19.00;82.70;;;;;;5003521;28;89146;-90
2023/08/05 07:06:44;;;;;;;82.95;53.45;;;19.00;85.20;;;;;;4996573;28;91126;-87
2023/08/05 07:09:11;;;;;;;83.32;53.70;;;19.10;82.20;;;;;;5004619;28;90510;-89
2023/08/05 07:11:36;;;;;;;82.78;53.42;;;19.10;83.40;;;;;;4996719;28;90075;-87
2023/08/05 07:14:02;;;;;;;83.82;53.65;;;19.20;83.70;;;;;;4998783;28;89338;-86
2023/08/05 07:16:28;;;;;;;84.50;54.13;;;19.20;89.80;;;;;;4977545;28;90543;-87
2023/08/05 07:18:53;;;;;;;83.85;53.53;;;19.30;89.90;;;;;;4998042;28;89971;-87
2023/08/05 07:21:19;;;;;;;82.85;53.50;;;19.30;89.60;;;;;;4996799;28;90679;-87
2023/08/05 07:23:44;;;;;;;85.32;53.80;;;19.40;90.60;;;;;;4995304;28;90403;-86
2023/08/05 07:26:10;;;;;;;84.32;53.85;;;19.40;91.10;;;;;;4973828;28;88913;-88
2023/08/05 07:28:36;;;;;;;83.75;53.90;;;19.50;88.80;;;;;;4995262;28;89349;-88
2023/08/05 07:31:07;;;;;;;87.28;54.25;;;19.50;90.20;;;;;;4992625;28;89922;-88
2023/08/05 07:33:33;;;;;;;89.15;54.42;;;19.50;87.50;;;;;;4992407;28;88979;-87
2023/08/05 07:36:15;;;;;;;84.75;54.33;;;19.50;87.30;;;;;;4992492;28;89827;-84
2023/08/05 07:38:42;;;;;;;88.35;54.47;;;19.60;87.90;;;;;;4994828;28;89843;-84
2023/08/05 07:41:07;;;;;;;87.32;54.45;;;19.60;87.60;;;;;;4990016;28;89862;-85
2023/08/05 07:43:35;;;;;;;86.55;54.33;;;19.60;86.40;;;;;;4996646;28;89079;-86
2023/08/05 07:46:02;;;;;;;84.43;54.50;;;19.60;86.90;;;;;;4992659;28;89771;-85
2023/08/05 07:48:34;;;;;;;86.22;54.78;;;19.60;84.90;;;;;;4990670;28;92921;-84
2023/08/05 07:51:00;;;;;;;84.70;54.42;;;19.70;84.90;;;;;;4993418;28;90829;-83
2023/08/05 07:53:28;;;;;;;86.78;54.75;;;19.70;85.00;;;;;;4995612;28;89415;-85
2023/08/05 07:55:54;;;;;;;86.35;54.58;;;19.60;83.90;;;;;;4988358;28;91362;-84
2023/08/05 07:58:20;;;;;;;85.45;54.42;;;19.70;83.70;;;;;;4989785;28;90208;-84
2023/08/05 08:00:46;;;;;;;85.60;54.65;;;19.70;83.80;;;;;;4991221;28;90060;-84
2023/08/05 08:03:12;;;;;;;85.07;54.38;;;19.70;83.30;;;;;;4994082;28;89561;-84
2023/08/05 08:05:37;;;;;;;84.10;54.25;;;19.80;84.20;;;;;;4975944;28;88612;-83
2023/08/05 08:08:03;;;;;;;85.10;54.55;;;19.90;83.90;;;;;;4991736;28;89672;-83
2023/08/05 08:10:29;;;;;;;85.50;54.58;;;19.90;81.80;;;;;;4974827;28;94336;-83
2023/08/05 08:12:54;;;;;;;84.53;54.38;;;19.90;82.50;;;;;;4989559;28;91710;-83
2023/08/05 08:15:20;;;;;;;86.95;54.85;;;20.00;82.30;;;;;;4993087;28;89301;-84
2023/08/05 08:17:46;;;;;;;87.43;54.60;;;20.00;82.30;;;;;;4994997;28;89362;-84
2023/08/05 08:20:12;;;;;;;84.78;54.38;;;20.00;81.00;;;;;;4991253;28;91531;-84
2023/08/05 08:22:37;;;;;;;85.05;54.85;;;20.10;82.30;;;;;;4990634;28;90011;-84
2023/08/05 08:25:03;;;;;;;87.68;54.55;;;20.10;81.10;;;;;;4993030;28;92401;-84
2023/08/05 08:27:29;;;;;;;86.63;54.78;;;20.10;82.60;;;;;;4974249;28;92859;-85
2023/08/05 08:29:54;;;;;;;86.80;54.65;;;20.20;82.50;;;;;;4995071;28;89424;-84
2023/08/05 08:32:20;;;;;;;86.50;54.30;;;20.20;81.30;;;;;;4991895;28;90826;-85
2023/08/05 08:34:45;;;;;;;87.63;54.85;;;20.20;81.60;;;;;;4991744;28;90023;-83
2023/08/05 08:37:11;;;;;;;84.85;54.42;;;20.20;81.20;;;;;;4993442;28;91505;-84
2023/08/05 08:39:37;;;;;;;88.65;54.95;;;20.30;82.20;;;;;;4988870;28;90615;-82
2023/08/05 08:42:02;;;;;;;87.68;54.80;;;20.40;81.40;;;;;;4993573;28;89043;-84
2023/08/05 08:44:29;;;;;;;85.85;54.45;;;20.40;80.50;;;;;;4994600;28;92778;-83
2023/08/05 08:46:56;;;;;;;86.38;54.65;;;20.40;80.70;;;;;;4989691;28;90858;-83
2023/08/05 08:49:23;;;;;;;86.05;54.50;;;20.40;81.40;;;;;;4993249;28;89727;-83
2023/08/05 08:51:49;;;;;;;85.07;54.35;;;20.50;80.50;;;;;;4974121;28;90029;-84
2023/08/05 08:54:17;;;;;;;87.22;54.65;;;20.40;79.80;;;;;;4984461;28;89190;-85
2023/08/05 08:56:43;;;;;;;86.20;54.28;;;20.40;78.20;;;;;;4986468;28;91462;-84
2023/08/05 08:59:08;;;;;;;85.65;54.35;;;20.50;79.20;;;;;;4990711;28;89638;-84
2023/08/05 09:01:42;;;;;;;88.03;54.25;;;20.40;79.40;;;;;;4990532;28;90469;-84
2023/08/05 09:04:11;;;;;;;89.65;54.25;;;20.40;79.30;;;;;;4989452;28;90453;-84
2023/08/05 09:06:40;;;;;;;97.60;54.70;;;20.40;79.40;;;;;;4988627;28;90774;-85
2023/08/05 09:09:06;;;;;;;86.57;54.15;;;20.40;79.90;;;;;;4986832;28;92159;-84
2023/08/05 09:11:32;;;;;;;85.75;54.35;;;20.40;79.40;;;;;;4991708;28;90393;-84
2023/08/05 09:13:58;;;;;;;93.90;54.25;;;20.40;79.30;;;;;;4993077;28;89361;-85
2023/08/05 09:16:26;;;;;;;86.88;54.35;;;20.50;81.00;;;;;;4990831;28;90153;-84
2023/08/05 09:18:53;;;;;;;88.68;54.63;;;20.60;80.20;;;;;;4988356;28;89716;-85
2023/08/05 09:21:22;;;;;;;87.82;54.95;;;20.70;81.20;;;;;;4970069;28;90183;-86
2023/08/05 09:23:48;;;;;;;88.22;54.72;;;20.80;80.30;;;;;;4993754;28;89532;-88
2023/08/05 09:26:13;;;;;;;89.60;54.63;;;20.70;80.10;;;;;;4987430;28;92485;-85
2023/08/05 09:28:39;;;;;;;90.07;55.17;;;20.70;80.60;;;;;;4989532;28;90811;-85
2023/08/05 09:31:11;;;;;;;88.07;54.83;;;20.70;79.60;;;;;;4991945;28;89490;-86
2023/08/05 09:33:38;;;;;;;86.53;54.88;;;20.70;78.40;;;;;;4993249;28;90466;-86
2023/08/05 09:36:09;;;;;;;88.95;54.95;;;20.70;79.10;;;;;;4993773;28;89381;-87
2023/08/05 09:38:35;;;;;;;84.93;54.58;;;20.70;79.10;;;;;;4988964;28;90858;-86
2023/08/05 09:41:01;;;;;;;87.35;54.65;;;20.70;78.30;;;;;;4990239;28;90367;-86
2023/08/05 09:43:31;;;;;;;87.70;54.75;;;20.70;78.10;;;;;;4976790;28;89040;-82
2023/08/05 09:45:57;;;;;;;90.93;54.93;;;20.60;77.10;;;;;;4978901;28;95351;-81
2023/08/05 09:48:25;;;;;;;86.80;54.70;;;20.50;76.20;;;;;;4976943;28;89614;-80
2023/08/05 09:50:51;;;;;;;86.43;54.45;;;20.50;76.60;;;;;;4984754;28;90081;-81
2023/08/05 09:53:20;;;;;;;85.38;54.25;;;20.50;75.80;;;;;;4959582;28;89639;-81
2023/08/05 09:55:46;;;;;;;85.63;54.05;;;20.40;76.10;;;;;;4982465;28;89847;-81
2023/08/05 09:58:13;;;;;;;84.97;54.55;;;20.40;76.50;;;;;;4977566;28;95279;-82
2023/08/05 10:00:43;;;;;;;85.20;54.42;;;20.30;76.20;;;;;;4981901;28;89800;-82
2023/08/05 10:03:13;;;;;;;84.88;54.15;;;20.30;76.60;;;;;;4989629;28;95791;-81
2023/08/05 10:05:41;;;;;;;85.07;54.47;;;20.20;76.80;;;;;;4988159;28;89856;-81
2023/08/05 10:08:07;;;;;;;85.20;53.97;;;20.20;77.20;;;;;;4981910;28;90905;-79
2023/08/05 10:10:35;;;;;;;86.72;54.30;;;20.20;77.60;;;;;;4985220;28;92032;-81
2023/08/05 10:13:16;;;;;;;87.30;54.30;;;20.20;77.30;;;;;;4979064;28;90293;-82
2023/08/05 10:15:46;;;;;;;86.25;54.60;;;20.10;75.90;;;;;;4987424;22;91816;-54
2023/08/05 10:18:15;;;;;;;85.43;54.47;;;20.00;73.30;;;;;;4968573;28;90122;-47
2023/08/05 10:20:41;;;;;;;84.25;54.42;;;20.00;74.60;;;;;;4955003;28;92590;-45
2023/08/05 10:23:08;;;;;;;85.82;54.50;;;20.00;75.00;;;;;;4961998;28;89999;-46
2023/08/05 10:25:45;;;;;;;85.80;54.83;;;20.00;75.40;;;;;;4957000;28;90350;-47
2023/08/05 10:28:33;;;;;;;85.25;54.40;;;20.00;75.60;;;;;;4962061;28;90125;-46
2023/08/05 10:31:03;;;;;;;87.65;55.50;;;20.20;74.50;;;;;;4961919;28;90474;-45
2023/08/05 10:33:28;;;;;;;88.07;55.03;;;20.30;74.80;;;;;;4957293;28;88673;-44
2023/08/05 10:36:07;;;;;;;86.13;54.85;;;20.40;75.10;;;;;;4958136;28;93164;-43
2023/08/05 10:38:42;;;;;;;86.07;55.10;;;20.40;74.80;;;;;;4963203;28;89920;-47
2023/08/05 10:41:10;;;;;;;87.18;55.38;;;20.50;76.30;;;;;;4966083;28;90313;-49
2023/08/05 10:43:40;;;;;;;86.00;55.25;;;20.50;74.90;;;;;;4967806;28;90595;-47
2023/08/05 10:46:06;;;;;;;87.30;55.55;;;20.60;75.60;;;;;;4967740;28;90306;-46
2023/08/05 10:48:35;;;;;;;86.22;55.13;;;20.60;74.80;;;;;;4961962;28;90188;-49
2023/08/05 10:51:08;;;;;;;87.53;55.35;;;20.60;74.70;;;;;;4966047;28;90039;-47
2023/08/05 10:53:35;;;;;;;85.35;55.33;;;20.30;71.60;;;;;;4964918;28;91848;-48
2023/08/05 10:56:00;;;;;;;86.78;54.85;;;20.20;72.00;;;;;;4964702;28;90860;-47
2023/08/05 10:58:34;;;;;;;85.65;54.67;;;20.30;72.40;;;;;;4958192;28;89357;-51
2023/08/05 11:01:02;;;;;;;86.88;55.17;;;20.20;72.70;;;;;;4950584;28;90462;-43
2023/08/05 11:03:44;;;;;;;87.07;55.13;;;20.30;72.20;;;;;;4958671;28;89609;-50
2023/08/05 11:06:12;;;;;;;86.95;54.83;;;20.20;72.80;;;;;;4964536;28;91286;-45
2023/08/05 11:08:39;;;;;;;87.88;54.95;;;20.10;71.90;;;;;;4948495;28;94432;-50
2023/08/05 11:11:10;;;;;;;87.57;55.25;;;20.10;73.60;;;;;;4951228;28;90409;-47
2023/08/05 11:13:37;;;;;;;85.90;55.53;;;20.20;72.60;;;;;;4950155;28;90871;-44
2023/08/05 11:16:21;;;;;;;86.82;54.92;;;20.10;72.30;;;;;;4954012;28;91170;-50
2023/08/05 11:18:57;;;;;;;88.88;54.97;;;20.10;72.90;;;;;;4949225;28;92155;-46
2023/08/05 11:21:23;;;;;;;88.97;54.80;;;20.30;71.30;;;;;;4955348;28;90476;-49
2023/08/05 11:23:49;;;;;;;85.47;54.88;;;20.30;71.40;;;;;;4957440;28;89865;-48
2023/08/05 11:26:15;;;;;;;84.25;54.75;;;20.40;71.50;;;;;;4950343;28;91343;-50
2023/08/05 11:28:44;;;;;;;86.75;55.05;;;20.40;68.80;;;;;;4961464;28;90876;-47
2023/08/05 11:31:26;;;;;;;85.60;54.95;;;20.50;71.40;;;;;;4952114;28;91438;-49
2023/08/05 11:33:53;;;;;;;86.32;54.85;;;20.50;69.40;;;;;;4949542;28;94061;-48
2023/08/05 11:36:26;;;;;;;87.20;54.85;;;20.60;69.40;;;;;;4951476;28;90959;-51
2023/08/05 11:38:52;;;;;;;86.40;55.15;;;20.70;68.90;;;;;;4952191;28;91035;-52
2023/08/05 11:41:17;;;;;;;88.40;55.28;;;20.70;69.00;;;;;;4955153;28;94679;-51
2023/08/05 11:43:43;;;;;;;86.55;54.90;;;20.90;69.90;;;;;;4951902;28;89507;-53
2023/08/05 11:46:29;;;;;;;87.90;55.15;;;20.80;67.00;;;;;;4955664;28;89668;-51
2023/08/05 11:49:08;;;;;;;90.75;55.97;;;20.70;69.40;;;;;;4958110;28;89939;-45
2023/08/05 11:51:50;;;;;;;85.97;54.47;;;20.50;69.00;;;;;;4957512;28;91863;-45
2023/08/05 11:54:29;;;;;;;87.45;54.83;;;20.40;66.20;;;;;;4946721;28;89595;-47
2023/08/05 11:56:56;;;;;;;86.00;54.65;;;20.20;67.90;;;;;;4950081;28;94578;-50
2023/08/05 11:59:45;;;;;;;86.63;54.58;;;20.20;69.10;;;;;;4946320;28;90569;-50
2023/08/05 12:02:13;;;;;;;86.32;54.80;;;20.20;68.90;;;;;;4945207;28;89695;-49
2023/08/05 12:04:46;;;;;;;90.15;54.97;;;20.10;71.50;;;;;;4948605;28;91009;-41
2023/08/05 12:07:13;;;;;;;83.93;54.22;;;20.10;72.30;;;;;;4962294;28;89692;-42
2023/08/05 12:09:39;;;;;;;85.90;54.75;;;20.10;70.70;;;;;;4949622;28;92036;-40
2023/08/05 12:12:05;;;;;;;83.50;54.25;;;20.00;71.30;;;;;;4954208;28;91393;-41
2023/08/05 12:14:31;;;;;;;85.82;53.85;;;20.00;70.30;;;;;;4948964;28;90733;-48
2023/08/05 12:16:59;;;;;;;83.70;54.35;;;19.90;70.90;;;;;;4949290;28;90421;-46
2023/08/05 12:19:29;;;;;;;83.80;54.08;;;19.80;71.90;;;;;;4935023;28;89977;-48
2023/08/05 12:21:55;;;;;;;87.18;54.75;;;19.70;73.90;;;;;;4958657;28;91471;-46
2023/08/05 12:24:20;;;;;;;83.35;54.40;;;19.70;74.30;;;;;;4929500;28;89505;-47
2023/08/05 12:26:46;;;;;;;84.65;54.28;;;19.70;74.70;;;;;;4952161;28;90025;-45
2023/08/05 12:29:12;;;;;;;86.03;54.42;;;19.70;73.30;;;;;;4963517;28;89447;-50